• Join FlightAware (Why Join?)
  • Login
  • US Flag 
08:26AM EST


 

Airport Tracker/Info


-or-


 

Live Flight TrackerFlight Track Log ✈ SWA2166 ✈ 09-Apr-2013 ✈ KMDW - KPVD

Flight Track Log - Related Links

Times and Time Zones

All times are in EDT time to prevent confusion due to time zone crossing. See the SWA2166 flight status page for this flight to view local times or setup timezone preferences in your user account.

Time Position Orientation Groundspeed Altitude Reporting Facility
EDT Latitude Longitude Course Direction KTS MPH feet Rate Location/Type
10:40AM 41.8000 -87.7333 82° East 148 170 1,900  Level Chicago TRACON
10:42AM 41.8161 -87.5875 82° East 244 281 5,000 1,527 Climbing Chicago Center
10:43AM 41.8072 -87.4842 97° East 267 307 6,100 2,634 Climbing Chicago Center
10:44AM 41.7956 -87.3747 98° East 291 335 10,400 4,098 Climbing Chicago Center
10:45AM 41.7789 -87.2253 98° East 344 396 14,500 3,707 Climbing Chicago Center
10:46AM 41.7636 -87.0836 98° East 381 438 18,000 3,295 Climbing Chicago Center
10:47AM 41.7625 -86.9269 90° East 419 482 21,200 3,317 Climbing Chicago Center
10:48AM 41.7647 -86.7686 89° East 427 491 24,800 3,024 Climbing Chicago Center
10:49AM 41.7717 -86.6142 86° East 438 504 27,400 2,439 Climbing Chicago Center
10:50AM 41.7942 -86.4492 80° East 452 520 29,800 2,195 Climbing Chicago Center
10:51AM 41.8178 -86.2797 79° East 462 532 31,900 2,098 Climbing Chicago Center
10:52AM 41.8447 -86.0686 80° East 478 550 34,100 2,049 Climbing Chicago Center
10:53AM 41.8681 -85.8883 80° East 486 559 36,100 1,659 Climbing Chicago Center
10:54AM 41.8914 -85.7053 80° East 492 566 37,500 1,756 Climbing Chicago Center
10:55AM 41.9158 -85.5214 80° East 495 570 39,700 1,707 Climbing Chicago Center
10:56AM 41.9364 -85.3472 81° East 466 536 41,000 696 Climbing Chicago Center
10:57AM 41.9569 -85.1939 80° East 478 550 41,000  Level Cleveland Center
10:58AM 41.9533 -85.0175 92° East 478 550 41,000  Level Cleveland Center
10:59AM 41.9542 -84.8361 90° East 478 550 41,000  Level Cleveland Center
11:00AM 41.9583 -84.6603 88° East 473 544 41,000  Level Cleveland Center
11:01AM 41.9850 -84.4917 78° East 473 544 41,000  Level Cleveland Center
11:02AM 42.0036 -84.3139 82° East 473 544 41,000  Level Cleveland Center
11:03AM 42.0189 -84.1608 82° East 467 537 41,000  Level Cleveland Center
11:04AM 42.0386 -83.9886 81° East 462 532 41,000  Level Cleveland Center
11:05AM 42.0561 -83.8161 82° East 462 532 41,000  Level Cleveland Center
11:06AM 42.0778 -83.6381 81° East 462 532 41,000  Level Cleveland Center
11:07AM 42.0994 -83.4461 81° East 468 539 41,000  Level Cleveland Center
11:08AM 42.1203 -83.2650 81° East 473 544 41,000  Level Cleveland Center
11:09AM 42.1369 -83.0894 83° East 478 550 41,000  Level Cleveland Center
11:10AM 42.1572 -82.9081 81° East 478 550 41,000  Level Cleveland Center
11:11AM 42.1733 -82.7319 83° East 478 550 41,000  Level Cleveland Center
11:12AM 42.1931 -82.5561 81° East 478 550 41,000  Level Cleveland Center
11:13AM 42.2106 -82.3800 82° East 478 550 41,000  Level Cleveland Center
11:14AM 42.2300 -82.2011 82° East 478 550 41,000  Level Cleveland Center
11:15AM 42.2467 -82.0444 82° East 478 550 41,000  Level Cleveland Center
11:16AM 42.2656 -81.8486 83° East 478 550 41,000  Level Cleveland Center
11:17AM 42.2819 -81.6692 83° East 483 556 41,000  Level Cleveland Center
11:18AM 42.3003 -81.4872 82° East 483 556 41,000  Level Cleveland Center
11:19AM 42.3161 -81.3047 83° East 483 556 41,000  Level Cleveland Center
11:20AM 42.3317 -81.1225 83° East 483 556 41,000  Level Cleveland Center
11:21AM 42.3492 -80.9456 82° East 482 555 41,000  Level Cleveland Center
11:22AM 42.3622 -80.7631 84° East 482 555 41,000  Level Cleveland Center
11:23AM 42.3769 -80.6000 83° East 482 555 41,000  Level Cleveland Center
11:24AM 42.3933 -80.4172 83° East 482 555 41,000  Level Cleveland Center
11:25AM 42.4097 -80.2400 83° East 482 555 41,000  Level Cleveland Center
11:26AM 42.4236 -80.0572 84° East 482 555 41,000  Level Cleveland Center
11:27AM 42.4392 -79.8544 84° East 482 555 41,000  Level Cleveland Center
11:28AM 42.4525 -79.6686 84° East 487 560 41,000  Level Cleveland Center
11:29AM 42.4656 -79.4911 84° East 498 573 41,000  Level Cleveland Center
11:30AM 42.4800 -79.2881 84° East 505 581 41,000  Level Cleveland Center
11:31AM 42.4944 -79.0992 84° East 499 574 41,000  Level Cleveland Center
11:32AM 42.5089 -78.9269 83° East 508 585 41,000 -100 Level Cleveland Center
11:33AM 42.5183 -78.7381 86° East 508 585 40,800 -550 Descending Cleveland Center
11:34AM 42.5300 -78.5544 85° East 502 578 39,900 -900 Descending Cleveland Center
11:35AM 42.5431 -78.3597 85° East 479 551 39,000 -700 Descending Cleveland Center
11:36AM 42.5583 -78.1814 83° East 479 551 38,500 -650 Descending Cleveland Center
11:37AM 42.5667 -77.9981 86° East 479 551 37,700 -750 Descending Cleveland Center
11:38AM 42.5792 -77.8142 85° East 484 557 37,000 -350 Descending Cleveland Center
11:39AM 42.5892 -77.6275 86° East 484 557 37,000  Level Cleveland Center
11:40AM 42.6008 -77.4381 85° East 490 564 37,000  Level Cleveland Center
11:41AM 42.6122 -77.2511 85° East 495 570 37,000  Level Cleveland Center
11:43AM 42.6250 -77.0714 84° East 523 602 37,000  Level Boston Center
11:43AM 42.6342 -76.8406 87° East 516 594 37,000  Level Boston Center
11:45AM 42.6206 -76.6475 95° East 516 594 37,000  Level Boston Center
11:46AM 42.6006 -76.4517 98° East 521 600 37,000  Level Boston Center
11:47AM 42.5842 -76.2586 97° East 521 600 37,000  Level Boston Center
11:47AM 42.5658 -76.0572 97° East 526 605 37,000 -103 Level Boston Center
11:48AM 42.5489 -75.8647 97° East 526 605 36,800 -694 Descending Boston Center
11:49AM 42.5317 -75.6719 97° East 521 600 35,600 -1,289 Descending Boston Center
11:50AM 42.5119 -75.4739 98° East 521 600 34,200 -1,388 Descending Boston Center
11:52AM 42.4942 -75.2758 97° East 526 605 32,800 -1,462 Descending Boston Center
11:52AM 42.4739 -75.0806 98° East 526 605 31,300 -1,462 Descending Boston Center
11:53AM 42.4575 -74.8883 97° East 521 600 29,900 -1,131 Descending Boston Center
11:55AM 42.4364 -74.6936 98° East 521 600 29,000 -454 Descending Boston Center
11:55AM 42.4169 -74.5044 98° East 521 600 29,000  Level Boston Center
11:56AM 42.3975 -74.3153 98° East 516 594 29,000 -248 Level Boston Center
11:57AM 42.3814 -74.1433 97° East 510 587 28,500 -1,537 Descending Boston Center
11:58AM 42.3572 -73.9264 99° East 515 593 25,900 -2,083 Descending Boston Center
12:00PM 42.3367 -73.7433 99° East 508 585 24,300 -1,412 Descending Boston Center
12:00PM 42.3219 -73.5578 96° East 500 575 23,100 -1,119 Descending Boston Center
12:01PM 42.3006 -73.3806 99° East 487 560 22,100 -1,033 Descending Boston Center
12:03PM 42.2750 -73.2033 101° East 463 533 21,000 -1,000 Descending Boston Center
12:03PM 42.2092 -73.0567 121° Southeast 443 510 20,100 -831 Descending Boston Center
12:05PM 42.1158 -72.9328 135° Southeast 462 532 19,200 -496 Descending Boston Center
12:06PM 42.0061 -72.7781 134° Southeast 467 537 19,000 -99 Descending Boston Center
12:07PM 41.9167 -72.6467 132° Southeast 473 544 19,000 -1,041 Level Boston Center
12:08PM 41.8481 -72.5208 126° Southeast 479 551 16,900 -2,513 Descending Boston Center
12:09PM 41.7647 -72.3733 127° Southeast 452 520 14,100 -2,638 Descending Boston Center
12:10PM 41.6894 -72.2400 127° Southeast 436 502 11,800 -1,537 Descending Boston Center
12:11PM 41.6206 -72.1153 126° Southeast 423 487 11,000 -393 Descending Boston Center
12:12PM 41.5533 -71.9936 126° Southeast 398 458 11,000 -397 Level Boston Center
12:13PM 41.5194 -71.8856 113° Southeast 376 433 10,200 -1,252 Descending Boston Center
12:14PM 41.5253 -71.7692 86° East 308 354 8,600 -1,655 Descending Boston Center
12:15PM 41.5811 -71.6992 43° Northeast 283 326 7,000 -1,686 Descending Boston Center
12:16PM 41.6431 -71.6344 38° Northeast 282 325 5,200 -1,041 Descending Boston Center
12:17PM 41.7053 -71.5781 34° Northeast 261 300 4,900 -581 Descending Boston Center
12:18PM 41.7694 -71.5217 33° Northeast 258 297 4,000 -1,317 Descending Boston Center
12:19PM 41.8106 -71.4597 48° Northeast 246 283 2,200 -1,250 Descending Boston Center
12:20PM 41.7850 -71.3933 117° Southeast 188 216 1,500 -789 Descending Boston Center
12:21PM 41.7497 -71.4078 197° South 147 169 700 8,678 Descending Boston Center
12:22PM 41.7164 -71.4222 198° South 110 127 19,000 8,578 Climbing Boston Center
12:23PM 41.6853 -71.4367 199° South 110 127 19,000  Level Boston Center
12:24PM 41.6542 -71.4511 199° South 110 127 19,000  Level Boston Center